Time;durP1;ratioP1;P1;durP2;ratioP2;P2;SDS_P1;SDS_P2;PMS_P1;PMS_P2;Temp;Humidity;BMP_temperature;BMP_pressure;BME280_temperature;BME280_humidity;BME280_pressure;Samples;Min_cycle;Max_cycle;Signal;HPM_P1;HPM_P2
2021/03/11 00:02:19;;;;;;;16.77;9.88;;;6.90;58.40;;;;;;5012827;28;20071;-90
2021/03/11 00:04:45;;;;;;;18.95;9.23;;;6.90;58.30;;;;;;5014215;28;20057;-90
2021/03/11 00:07:11;;;;;;;19.33;9.07;;;6.90;58.30;;;;;;5013253;28;20381;-90
2021/03/11 00:09:36;;;;;;;18.13;8.98;;;6.90;58.40;;;;;;5013927;28;20381;-91
2021/03/11 00:12:05;;;;;;;18.50;9.52;;;6.90;58.40;;;;;;5013458;28;20037;-90
2021/03/11 00:14:30;;;;;;;16.45;9.05;;;6.90;58.40;;;;;;5013490;28;20030;-91
2021/03/11 00:16:56;;;;;;;15.80;8.45;;;6.90;58.40;;;;;;5012418;28;20080;-91
2021/03/11 00:19:21;;;;;;;16.92;9.25;;;6.90;58.40;;;;;;5015109;28;20021;-90
2021/03/11 00:21:47;;;;;;;17.38;8.55;;;6.90;58.40;;;;;;5048576;23;20065;-86
2021/03/11 00:24:12;;;;;;;17.23;9.45;;;6.80;58.40;;;;;;5025783;28;20025;-85
2021/03/11 00:26:38;;;;;;;15.40;8.85;;;6.90;58.50;;;;;;5025814;28;20034;-85
2021/03/11 00:29:04;;;;;;;16.80;9.38;;;6.80;58.40;;;;;;5022295;28;20028;-83
2021/03/11 00:31:29;;;;;;;14.88;8.90;;;6.90;58.60;;;;;;5020251;28;20065;-84
2021/03/11 00:33:55;;;;;;;16.95;9.00;;;6.90;58.50;;;;;;5019084;28;20094;-86
2021/03/11 00:36:20;;;;;;;19.02;9.50;;;6.80;58.40;;;;;;5019330;28;20022;-85
2021/03/11 00:38:46;;;;;;;18.80;9.35;;;6.80;58.50;;;;;;5021177;28;20076;-85
2021/03/11 00:41:11;;;;;;;13.75;8.38;;;6.80;58.50;;;;;;5018916;28;20040;-84
2021/03/11 00:43:37;;;;;;;16.83;8.73;;;6.90;58.50;;;;;;5019108;28;20391;-85
2021/03/11 00:46:02;;;;;;;14.70;8.40;;;6.90;58.50;;;;;;5019850;28;20056;-85
2021/03/11 00:48:28;;;;;;;13.70;8.15;;;6.90;58.50;;;;;;5017718;28;20064;-85
2021/03/11 00:50:54;;;;;;;15.23;8.35;;;6.90;58.50;;;;;;5017511;28;20033;-83
2021/03/11 00:53:19;;;;;;;14.63;8.60;;;6.90;58.50;;;;;;5013985;28;20033;-86
2021/03/11 00:55:45;;;;;;;14.00;7.88;;;6.90;58.50;;;;;;5017414;28;20025;-85
2021/03/11 00:58:11;;;;;;;16.25;8.38;;;6.90;58.60;;;;;;5019339;28;20022;-83
2021/03/11 01:00:37;;;;;;;15.45;7.95;;;6.90;58.50;;;;;;5021232;28;20085;-85
2021/03/11 01:03:02;;;;;;;14.13;8.13;;;7.00;58.60;;;;;;5017819;28;20491;-84
2021/03/11 01:05:29;;;;;;;13.50;8.40;;;7.00;58.50;;;;;;5020614;28;20060;-85
2021/03/11 01:07:55;;;;;;;15.68;8.88;;;7.00;58.30;;;;;;5020039;28;20029;-84
2021/03/11 01:10:21;;;;;;;18.30;9.32;;;7.00;58.30;;;;;;5019601;28;20032;-85
2021/03/11 01:12:47;;;;;;;14.43;7.97;;;7.00;58.30;;;;;;5020474;28;20532;-83
2021/03/11 01:15:13;;;;;;;15.40;8.68;;;7.00;58.20;;;;;;5022150;28;20030;-83
2021/03/11 01:17:39;;;;;;;14.15;8.65;;;7.00;58.30;;;;;;5022949;28;20033;-85
2021/03/11 01:20:14;;;;;;;15.18;8.38;;;7.00;58.20;;;;;;5021149;28;20030;-85
2021/03/11 01:22:40;;;;;;;14.30;8.05;;;7.10;58.20;;;;;;5016399;28;20069;-85
2021/03/11 01:25:06;;;;;;;15.50;8.45;;;7.10;58.20;;;;;;5020112;28;20129;-85
2021/03/11 01:27:32;;;;;;;19.30;8.38;;;7.10;58.10;;;;;;5018338;28;20030;-85
2021/03/11 01:29:59;;;;;;;14.02;8.73;;;7.10;58.00;;;;;;5018638;28;20056;-85
2021/03/11 01:32:24;;;;;;;15.10;8.88;;;7.20;58.00;;;;;;5019212;28;20072;-85
2021/03/11 01:34:50;;;;;;;14.98;8.88;;;7.20;57.80;;;;;;5015885;28;20556;-85
2021/03/11 01:37:16;;;;;;;15.93;8.88;;;7.20;57.80;;;;;;5020146;28;20026;-83
2021/03/11 01:39:41;;;;;;;16.02;8.27;;;7.20;57.80;;;;;;5020955;28;20033;-84
2021/03/11 01:42:07;;;;;;;14.70;8.43;;;7.20;57.80;;;;;;5016017;28;20109;-84
2021/03/11 01:44:32;;;;;;;15.82;8.93;;;7.30;57.90;;;;;;5018374;28;20036;-83
2021/03/11 01:46:58;;;;;;;13.98;8.48;;;7.30;57.80;;;;;;5018700;28;20053;-84
2021/03/11 01:49:24;;;;;;;14.05;8.75;;;7.30;57.70;;;;;;5018351;28;20045;-84
2021/03/11 01:51:51;;;;;;;15.63;8.63;;;7.40;57.80;;;;;;5018852;28;20049;-85
2021/03/11 01:54:19;;;;;;;17.60;8.35;;;7.30;57.80;;;;;;5016339;28;20026;-84
2021/03/11 01:56:46;;;;;;;15.05;8.52;;;7.30;57.80;;;;;;5020685;28;20089;-83
2021/03/11 01:59:12;;;;;;;14.85;8.48;;;7.30;57.90;;;;;;5021173;28;20030;-84
2021/03/11 02:01:38;;;;;;;15.95;8.98;;;7.30;57.80;;;;;;5020675;28;20101;-84
2021/03/11 02:04:03;;;;;;;15.02;8.45;;;7.30;57.80;;;;;;5017140;28;20345;-85
2021/03/11 02:06:29;;;;;;;17.02;9.32;;;7.30;57.90;;;;;;5016169;28;20021;-83
2021/03/11 02:08:55;;;;;;;13.45;8.75;;;7.30;57.90;;;;;;5017755;28;20041;-85
2021/03/11 02:11:25;;;;;;;16.45;8.95;;;7.30;57.80;;;;;;5017499;28;20060;-84
2021/03/11 02:14:04;;;;;;;16.05;8.68;;;7.30;57.90;;;;;;5017792;28;20072;-84
2021/03/11 02:16:31;;;;;;;15.43;8.73;;;7.40;57.80;;;;;;5018536;28;20032;-85
2021/03/11 02:19:08;;;;;;;19.10;8.68;;;7.40;57.90;;;;;;5017876;28;20022;-84
2021/03/11 02:21:48;;;;;;;13.40;8.25;;;7.40;57.90;;;;;;5014845;28;20076;-86
2021/03/11 02:24:53;;;;;;;15.65;7.88;;;7.50;57.90;;;;;;5016291;28;20426;-84
2021/03/11 02:27:48;;;;;;;13.23;7.45;;;7.50;57.90;;;;;;5016534;28;20074;-84
2021/03/11 02:30:14;;;;;;;12.00;6.82;;;7.50;58.00;;;;;;5015867;28;20038;-83
2021/03/11 02:32:42;;;;;;;16.75;7.35;;;7.50;58.00;;;;;;5017903;28;20085;-84
2021/03/11 02:35:10;;;;;;;13.18;6.35;;;7.60;58.10;;;;;;5018537;28;20052;-83
2021/03/11 02:37:43;;;;;;;13.07;6.95;;;7.60;58.70;;;;;;5022905;28;20022;-86
2021/03/11 02:40:21;;;;;;;13.25;6.72;;;7.60;58.20;;;;;;5022126;28;20026;-86
2021/03/11 02:42:52;;;;;;;12.43;7.07;;;7.70;58.30;;;;;;5023689;28;20116;-84
2021/03/11 02:45:22;;;;;;;10.98;6.80;;;7.70;58.30;;;;;;5007132;28;20102;-86
2021/03/11 02:47:48;;;;;;;12.18;6.80;;;7.70;58.30;;;;;;5002663;28;20060;-85
2021/03/11 02:50:14;;;;;;;12.95;6.85;;;7.80;58.20;;;;;;5019944;28;20434;-84
2021/03/11 02:52:41;;;;;;;11.45;6.85;;;7.80;58.20;;;;;;5020926;28;20094;-84
2021/03/11 02:55:07;;;;;;;11.73;6.38;;;7.90;58.30;;;;;;5021712;28;20510;-83
2021/03/11 02:57:36;;;;;;;12.43;6.53;;;7.80;58.20;;;;;;5022275;28;20069;-83
2021/03/11 03:00:06;;;;;;;9.80;6.25;;;7.90;58.20;;;;;;5021451;28;20396;-85
2021/03/11 03:02:33;;;;;;;11.50;6.53;;;7.90;58.30;;;;;;5022004;28;20032;-82
2021/03/11 03:05:00;;;;;;;12.68;6.47;;;7.90;58.30;;;;;;5018316;28;20511;-86
2021/03/11 03:07:27;;;;;;;11.40;5.97;;;7.90;58.70;;;;;;5016681;28;20054;-86
2021/03/11 03:09:55;;;;;;;13.15;5.97;;;7.90;58.10;;;;;;5016816;28;20117;-82
2021/03/11 03:12:22;;;;;;;9.45;5.82;;;8.00;58.20;;;;;;5018907;28;20029;-85
2021/03/11 03:14:50;;;;;;;9.75;5.75;;;8.00;58.10;;;;;;5019859;28;20530;-83
2021/03/11 03:17:19;;;;;;;11.63;6.03;;;8.10;58.10;;;;;;5021090;28;20025;-86
2021/03/11 03:19:46;;;;;;;10.50;5.72;;;8.10;58.10;;;;;;5018098;28;20030;-85
2021/03/11 03:22:14;;;;;;;9.00;5.60;;;8.10;58.10;;;;;;5019633;28;20029;-84
2021/03/11 03:24:42;;;;;;;8.95;5.20;;;8.10;58.10;;;;;;5020296;28;20092;-86
2021/03/11 03:27:08;;;;;;;10.65;5.35;;;8.20;58.10;;;;;;5021391;28;20025;-84
2021/03/11 03:29:36;;;;;;;9.07;5.35;;;8.20;58.10;;;;;;5020904;28;20040;-84
2021/03/11 03:32:02;;;;;;;10.57;5.05;;;8.20;58.10;;;;;;5024559;28;20041;-85
2021/03/11 03:34:28;;;;;;;7.80;4.55;;;8.20;58.10;;;;;;5023647;28;20052;-84
2021/03/11 03:36:54;;;;;;;9.57;5.35;;;8.30;58.20;;;;;;5023115;28;20476;-86
2021/03/11 03:39:19;;;;;;;9.85;5.20;;;8.30;58.20;;;;;;5022422;28;20053;-85
2021/03/11 03:41:48;;;;;;;8.93;5.20;;;8.30;58.20;;;;;;5021012;28;20048;-85
2021/03/11 03:44:17;;;;;;;8.23;4.90;;;8.30;58.20;;;;;;5021304;28;20033;-86
2021/03/11 03:46:45;;;;;;;9.25;5.15;;;8.30;58.20;;;;;;5021878;28;20029;-85
2021/03/11 03:49:15;;;;;;;8.27;5.28;;;8.30;58.20;;;;;;5020177;28;20269;-87
2021/03/11 03:51:45;;;;;;;10.93;5.45;;;8.40;58.20;;;;;;5023507;28;20129;-85
2021/03/11 03:54:25;;;;;;;8.60;4.88;;;8.30;58.10;;;;;;5023032;28;20022;-84
2021/03/11 03:57:01;;;;;;;7.28;4.80;;;8.40;58.20;;;;;;5008190;28;20089;-86
2021/03/11 03:59:42;;;;;;;9.02;5.40;;;8.30;58.20;;;;;;5023678;28;20026;-86
2021/03/11 04:02:11;;;;;;;9.30;5.32;;;8.30;58.10;;;;;;5020455;28;20022;-85
2021/03/11 04:04:40;;;;;;;8.07;4.82;;;8.40;58.10;;;;;;5015218;28;20026;-83
2021/03/11 04:07:11;;;;;;;7.57;4.70;;;8.30;58.10;;;;;;5021814;28;20030;-86
2021/03/11 04:09:39;;;;;;;8.60;5.50;;;8.30;58.20;;;;;;5021613;28;20468;-86
2021/03/11 04:12:06;;;;;;;8.75;4.55;;;8.30;58.30;;;;;;5022405;28;20048;-86
2021/03/11 04:14:32;;;;;;;7.60;4.80;;;8.30;58.40;;;;;;5019751;28;20037;-86
2021/03/11 04:16:59;;;;;;;9.23;5.47;;;8.30;58.50;;;;;;5036434;28;20034;-85
2021/03/11 04:19:25;;;;;;;9.90;5.45;;;8.30;58.60;;;;;;5021921;28;20026;-87
2021/03/11 04:21:54;;;;;;;10.48;5.13;;;8.30;58.60;;;;;;5019181;28;20097;-85
2021/03/11 04:24:20;;;;;;;9.10;4.65;;;8.40;58.80;;;;;;5004449;28;20037;-84
2021/03/11 04:26:47;;;;;;;8.88;5.13;;;8.30;58.70;;;;;;5019577;28;20038;-85
2021/03/11 04:29:12;;;;;;;7.90;4.82;;;8.30;58.70;;;;;;5010083;28;20022;-84
2021/03/11 04:31:39;;;;;;;8.32;4.85;;;8.30;58.70;;;;;;5019777;28;20034;-86
2021/03/11 04:34:06;;;;;;;8.10;4.90;;;8.40;58.80;;;;;;5022526;28;20022;-85
2021/03/11 04:36:33;;;;;;;10.05;4.70;;;8.30;58.80;;;;;;5015807;28;20030;-85
2021/03/11 04:38:59;;;;;;;9.13;5.15;;;8.30;58.70;;;;;;5016065;28;20084;-86
2021/03/11 04:41:26;;;;;;;7.18;4.75;;;8.40;58.90;;;;;;5016867;28;20030;-84
2021/03/11 04:43:53;;;;;;;9.75;5.18;;;8.40;58.80;;;;;;5017651;28;20057;-84
2021/03/11 04:46:20;;;;;;;10.18;5.35;;;8.40;58.80;;;;;;5023668;28;20022;-84
2021/03/11 04:48:47;;;;;;;9.15;4.85;;;8.40;58.80;;;;;;5025883;28;20030;-84
2021/03/11 04:51:13;;;;;;;7.68;4.85;;;8.40;58.80;;;;;;5026329;28;20037;-84
2021/03/11 04:53:39;;;;;;;7.38;4.90;;;8.40;58.90;;;;;;5023157;28;20026;-84
2021/03/11 04:56:09;;;;;;;5.97;4.30;;;8.50;59.00;;;;;;5018969;28;20048;-85
2021/03/11 04:58:38;;;;;;;9.32;4.00;;;8.60;59.00;;;;;;5019349;28;20542;-84
2021/03/11 05:01:09;;;;;;;7.20;4.20;;;8.60;59.00;;;;;;5020421;28;20046;-85
2021/03/11 05:03:37;;;;;;;7.60;4.13;;;8.60;59.00;;;;;;5020880;28;20035;-86
2021/03/11 05:06:03;;;;;;;7.95;4.60;;;8.70;59.20;;;;;;5017202;28;20036;-85
2021/03/11 05:08:28;;;;;;;9.40;4.65;;;8.70;59.30;;;;;;5022795;28;20034;-85
2021/03/11 05:10:54;;;;;;;8.07;3.95;;;8.80;59.30;;;;;;5021731;28;20490;-84
2021/03/11 05:13:20;;;;;;;7.63;4.15;;;8.80;59.40;;;;;;5024006;28;20037;-86
2021/03/11 05:15:45;;;;;;;8.95;4.43;;;8.70;59.40;;;;;;5025219;28;20022;-85
2021/03/11 05:18:11;;;;;;;6.75;4.00;;;8.80;59.80;;;;;;5024488;28;20037;-85
2021/03/11 05:20:36;;;;;;;6.10;3.65;;;8.80;60.30;;;;;;5023636;28;20109;-84
2021/03/11 05:23:02;;;;;;;7.65;4.28;;;8.70;60.70;;;;;;5017925;28;20030;-85
2021/03/11 05:25:28;;;;;;;6.47;3.65;;;8.80;60.80;;;;;;5020989;28;20022;-85
2021/03/11 05:27:53;;;;;;;7.10;3.92;;;8.70;61.10;;;;;;5022819;28;20034;-85
2021/03/11 05:30:19;;;;;;;7.78;4.75;;;8.70;61.30;;;;;;5023317;28;20030;-85
2021/03/11 05:32:45;;;;;;;7.68;4.65;;;8.70;61.40;;;;;;5024361;28;20078;-85
2021/03/11 05:35:10;;;;;;;7.05;4.10;;;8.70;61.50;;;;;;5024957;28;20026;-86
2021/03/11 05:37:38;;;;;;;5.95;4.07;;;8.70;61.50;;;;;;5024346;28;20029;-85
2021/03/11 05:40:09;;;;;;;6.07;4.30;;;8.70;61.60;;;;;;5015096;28;20037;-84
2021/03/11 05:42:37;;;;;;;7.55;3.95;;;8.80;61.90;;;;;;5019255;28;20384;-85
2021/03/11 05:45:07;;;;;;;6.75;3.85;;;8.80;61.70;;;;;;5028265;28;20018;-86
2021/03/11 05:47:33;;;;;;;8.45;3.53;;;8.80;61.60;;;;;;5033681;28;20030;-85
2021/03/11 05:50:00;;;;;;;6.28;4.18;;;8.80;61.60;;;;;;5033818;28;20022;-85
2021/03/11 05:52:28;;;;;;;6.90;3.80;;;8.90;62.20;;;;;;5036185;28;20038;-85
2021/03/11 05:54:54;;;;;;;6.00;3.75;;;8.90;61.60;;;;;;5034241;28;20026;-85
2021/03/11 05:57:20;;;;;;;6.55;3.90;;;8.90;61.50;;;;;;5025312;28;20041;-85
2021/03/11 05:59:46;;;;;;;7.15;4.05;;;8.90;61.40;;;;;;5010995;28;20069;-86
2021/03/11 06:02:11;;;;;;;9.40;4.10;;;9.00;61.40;;;;;;5019916;28;20094;-85
2021/03/11 06:04:39;;;;;;;7.15;3.97;;;8.90;61.30;;;;;;5018858;28;20129;-86
2021/03/11 06:07:09;;;;;;;5.78;3.55;;;9.00;61.80;;;;;;5020020;28;20475;-85
2021/03/11 06:09:36;;;;;;;5.78;3.83;;;9.00;61.30;;;;;;5021759;28;20030;-86
2021/03/11 06:12:04;;;;;;;5.32;3.80;;;9.00;61.20;;;;;;5019063;28;20089;-86
2021/03/11 06:14:35;;;;;;;6.25;3.53;;;9.00;61.30;;;;;;5007600;28;20040;-85
2021/03/11 06:17:06;;;;;;;6.40;3.53;;;9.10;61.40;;;;;;5018389;28;20091;-83
2021/03/11 06:19:32;;;;;;;6.57;3.47;;;9.10;61.60;;;;;;5018110;28;20538;-86
2021/03/11 06:21:59;;;;;;;4.40;2.95;;;9.20;61.60;;;;;;5016999;28;20030;-84
2021/03/11 06:24:25;;;;;;;9.35;3.60;;;9.30;61.70;;;;;;5019737;28;20026;-86
2021/03/11 06:26:50;;;;;;;5.30;3.10;;;9.30;61.80;;;;;;5013551;28;20496;-86
2021/03/11 06:29:17;;;;;;;7.70;3.25;;;9.30;61.80;;;;;;5017961;28;20061;-85
2021/03/11 06:31:43;;;;;;;4.53;2.80;;;9.40;62.00;;;;;;5014203;28;20022;-86
2021/03/11 06:34:22;;;;;;;3.55;2.90;;;9.40;62.00;;;;;;4999642;28;20033;-84
2021/03/11 06:36:49;;;;;;;5.07;3.35;;;9.40;62.00;;;;;;5013017;28;20034;-86
2021/03/11 06:39:28;;;;;;;5.38;2.75;;;9.40;62.10;;;;;;5019352;28;20046;-86
2021/03/11 06:41:54;;;;;;;6.95;3.35;;;9.50;62.20;;;;;;5017057;28;20061;-84
2021/03/11 06:44:38;;;;;;;3.35;2.80;;;9.50;62.30;;;;;;5019144;28;20064;-85
2021/03/11 06:47:12;;;;;;;4.63;2.65;;;9.60;62.30;;;;;;5035674;23;20049;-90
2021/03/11 06:50:00;;;;;;;5.07;2.78;;;9.60;62.40;;;;;;5022483;28;20033;-91
2021/03/11 06:52:26;;;;;;;4.78;2.70;;;9.60;62.40;;;;;;5028681;28;20036;-90
2021/03/11 06:55:00;;;;;;;6.13;3.10;;;9.60;62.30;;;;;;5030563;28;20024;-90
2021/03/11 06:57:29;;;;;;;4.32;2.88;;;9.70;62.50;;;;;;5030167;28;20368;-90
2021/03/11 06:59:59;;;;;;;5.57;3.03;;;9.70;62.60;;;;;;5011594;28;20018;-90
2021/03/11 07:02:25;;;;;;;6.55;2.47;;;9.70;62.60;;;;;;5030354;28;20018;-90
2021/03/11 07:04:53;;;;;;;4.25;3.03;;;9.70;62.60;;;;;;5031165;28;20032;-90
2021/03/11 07:07:23;;;;;;;5.63;3.03;;;9.80;62.60;;;;;;5030730;28;20037;-91
2021/03/11 07:09:50;;;;;;;5.90;2.67;;;9.80;63.40;;;;;;5030758;28;20555;-89
2021/03/11 07:12:16;;;;;;;7.15;2.50;;;9.90;62.90;;;;;;5031326;28;20025;-90
2021/03/11 07:14:42;;;;;;;3.22;2.33;;;9.90;62.80;;;;;;5030305;28;20028;-90
2021/03/11 07:17:24;;;;;;;2.83;2.28;;;9.90;63.00;;;;;;5023334;28;20048;-90
2021/03/11 07:20:11;;;;;;;6.97;2.40;;;9.90;63.00;;;;;;5012955;28;20567;-90
2021/03/11 07:22:38;;;;;;;4.07;2.90;;;10.00;63.00;;;;;;5025734;28;20057;-90
2021/03/11 07:25:24;;;;;;;3.53;2.30;;;10.00;63.10;;;;;;5035188;28;20490;-90
2021/03/11 07:27:50;;;;;;;5.55;2.70;;;10.00;63.30;;;;;;5033974;28;20063;-89
2021/03/11 07:30:16;;;;;;;4.63;2.00;;;10.00;63.30;;;;;;5034268;28;20091;-89
2021/03/11 07:32:42;;;;;;;2.17;1.98;;;10.00;63.30;;;;;;5030512;28;20029;-90
2021/03/11 07:35:08;;;;;;;3.20;2.20;;;10.10;63.30;;;;;;5033684;28;20026;-88
2021/03/11 07:37:35;;;;;;;3.60;2.65;;;10.10;63.50;;;;;;5033648;28;20014;-88
2021/03/11 07:40:02;;;;;;;3.58;2.53;;;10.20;63.40;;;;;;5025943;28;20021;-90
2021/03/11 07:42:28;;;;;;;3.35;2.22;;;10.30;63.50;;;;;;5033983;28;20025;-90
2021/03/11 07:44:54;;;;;;;3.20;2.08;;;10.20;63.40;;;;;;5033353;28;20044;-90
2021/03/11 07:47:19;;;;;;;2.95;2.22;;;10.30;63.40;;;;;;5027284;28;20336;-91
2021/03/11 07:49:46;;;;;;;2.20;2.00;;;10.30;63.40;;;;;;5023347;28;20069;-91
2021/03/11 07:52:12;;;;;;;3.17;2.40;;;10.40;63.30;;;;;;5024656;28;20025;-91
2021/03/11 07:54:38;;;;;;;5.38;2.47;;;10.40;63.30;;;;;;5034416;28;20089;-91
2021/03/11 07:57:04;;;;;;;8.70;2.38;;;10.50;63.30;;;;;;5034395;28;20025;-91
2021/03/11 07:59:31;;;;;;;4.32;2.30;;;10.50;63.20;;;;;;5022842;28;20017;-90
2021/03/11 08:02:12;;;;;;;6.15;2.30;;;10.50;63.10;;;;;;5026947;28;20041;-90
2021/03/11 08:04:42;;;;;;;3.08;2.30;;;10.60;63.20;;;;;;5032862;28;20373;-90
2021/03/11 08:07:15;;;;;;;4.88;2.13;;;10.60;63.10;;;;;;5034114;28;20052;-90
2021/03/11 08:09:42;;;;;;;4.00;1.92;;;10.70;63.10;;;;;;5015966;28;20033;-91
2021/03/11 08:12:30;;;;;;;2.97;1.80;;;10.70;63.00;;;;;;5033785;28;20025;-91
2021/03/11 08:15:02;;;;;;;3.53;2.35;;;10.70;63.00;;;;;;5034262;28;20036;-89
2021/03/11 08:17:48;;;;;;;5.28;2.42;;;10.80;62.90;;;;;;5032914;28;20032;-90
2021/03/11 08:20:19;;;;;;;7.25;2.00;;;10.90;63.00;;;;;;5030713;28;20045;-89
2021/03/11 08:22:51;;;;;;;8.10;1.92;;;10.90;62.80;;;;;;5033195;28;20041;-89
2021/03/11 08:25:43;;;;;;;3.97;1.92;;;10.90;62.80;;;;;;5034465;28;20029;-87
2021/03/11 08:28:09;;;;;;;2.45;1.70;;;11.00;62.70;;;;;;5030322;28;20057;-88
2021/03/11 08:30:49;;;;;;;4.05;1.92;;;11.00;62.60;;;;;;5032742;28;20107;-88
2021/03/11 08:33:34;;;;;;;3.58;1.88;;;11.10;62.70;;;;;;5038316;28;20033;-88
2021/03/11 08:36:02;;;;;;;2.83;1.80;;;11.10;62.60;;;;;;5035942;28;20033;-89
2021/03/11 08:38:30;;;;;;;2.17;1.63;;;11.10;62.60;;;;;;5032729;28;20021;-90
2021/03/11 08:41:02;;;;;;;1.80;1.30;;;11.10;62.60;;;;;;5018682;28;20051;-91
2021/03/11 08:43:40;;;;;;;4.22;1.65;;;11.20;62.70;;;;;;5027190;28;20030;-92
2021/03/11 08:46:14;;;;;;;3.22;1.38;;;11.30;62.70;;;;;;5040915;28;20040;-91
2021/03/11 08:48:57;;;;;;;2.95;2.15;;;11.30;62.60;;;;;;5029074;28;20664;-92
2021/03/11 08:51:23;;;;;;;2.22;1.60;;;11.40;62.60;;;;;;5027115;28;20075;-89
2021/03/11 08:53:50;;;;;;;2.53;1.55;;;11.50;62.50;;;;;;5033889;28;20028;-89
2021/03/11 08:56:16;;;;;;;3.03;1.50;;;11.60;62.40;;;;;;5036089;28;20091;-89
2021/03/11 08:59:07;;;;;;;2.08;1.35;;;11.70;62.30;;;;;;5036457;28;20025;-88
2021/03/11 09:01:49;;;;;;;2.35;1.40;;;11.70;62.10;;;;;;5053812;28;20103;-89
2021/03/11 09:04:21;;;;;;;1.75;1.40;;;11.80;62.10;;;;;;5035829;28;20031;-90
2021/03/11 09:06:51;;;;;;;2.13;1.38;;;11.80;61.90;;;;;;5032710;28;20588;-89
2021/03/11 09:09:30;;;;;;;4.40;1.38;;;11.90;61.90;;;;;;5041396;28;20033;-89
2021/03/11 09:11:55;;;;;;;1.52;1.35;;;12.00;61.90;;;;;;5036393;28;20039;-89
2021/03/11 09:14:25;;;;;;;3.45;1.63;;;12.00;61.70;;;;;;5036086;28;20410;-89
2021/03/11 09:16:52;;;;;;;2.17;1.75;;;12.10;61.70;;;;;;5025495;28;20401;-89
2021/03/11 09:19:17;;;;;;;3.70;1.83;;;12.20;61.60;;;;;;5032008;28;20066;-90
2021/03/11 09:21:44;;;;;;;3.67;1.40;;;12.20;61.30;;;;;;5034552;28;20422;-89
2021/03/11 09:24:20;;;;;;;7.85;1.85;;;12.30;61.30;;;;;;5027736;28;20025;-89
2021/03/11 09:26:46;;;;;;;2.75;1.30;;;12.20;61.10;;;;;;5025252;28;20029;-89
2021/03/11 09:29:14;;;;;;;2.80;1.30;;;12.30;61.20;;;;;;5053125;28;20249;-90
2021/03/11 09:31:46;;;;;;;1.60;1.50;;;12.30;61.10;;;;;;5033004;28;20025;-89
2021/03/11 09:34:11;;;;;;;1.88;1.27;;;12.30;60.80;;;;;;5031331;28;20052;-88
2021/03/11 09:36:46;;;;;;;2.63;1.50;;;12.30;60.90;;;;;;5036074;28;20068;-89
2021/03/11 09:39:12;;;;;;;4.85;1.42;;;12.30;60.80;;;;;;5036567;28;20021;-89
2021/03/11 09:41:38;;;;;;;1.80;1.30;;;12.40;60.90;;;;;;5036610;28;20029;-89
2021/03/11 09:44:06;;;;;;;1.95;1.20;;;12.40;61.00;;;;;;5033647;28;20159;-89
2021/03/11 09:46:32;;;;;;;1.42;1.30;;;12.50;61.00;;;;;;5035829;28;20032;-90
2021/03/11 09:48:58;;;;;;;1.85;1.02;;;12.50;60.70;;;;;;5036323;28;20051;-89
2021/03/11 09:51:28;;;;;;;1.65;1.40;;;12.70;60.70;;;;;;5035963;28;20036;-89
2021/03/11 09:53:54;;;;;;;1.20;1.10;;;12.70;60.50;;;;;;5035793;28;20021;-90
2021/03/11 09:56:22;;;;;;;2.33;1.23;;;12.80;60.40;;;;;;5035561;28;20019;-89
2021/03/11 09:58:56;;;;;;;5.35;1.38;;;12.90;60.50;;;;;;5035679;28;20035;-89
2021/03/11 10:01:39;;;;;;;4.07;1.38;;;12.90;60.70;;;;;;5035412;28;20033;-89
2021/03/11 10:04:12;;;;;;;3.42;1.40;;;12.90;61.10;;;;;;5035381;28;20075;-90
2021/03/11 10:06:46;;;;;;;2.58;1.20;;;12.80;61.40;;;;;;5035772;28;20037;-90
2021/03/11 10:09:12;;;;;;;3.90;1.17;;;12.80;61.50;;;;;;5034957;28;20035;-87
2021/03/11 10:11:43;;;;;;;2.75;1.13;;;12.80;62.00;;;;;;5034168;28;20570;-88
2021/03/11 10:14:21;;;;;;;6.25;1.60;;;12.80;62.10;;;;;;5030421;28;20084;-88
2021/03/11 10:16:49;;;;;;;1.67;1.00;;;12.70;62.60;;;;;;5036896;28;20025;-87
2021/03/11 10:19:27;;;;;;;2.22;1.30;;;12.70;62.80;;;;;;5047943;28;20169;-90
2021/03/11 10:21:58;;;;;;;4.15;1.50;;;12.60;63.60;;;;;;5035935;28;20029;-90
2021/03/11 10:24:38;;;;;;;3.00;1.33;;;12.50;63.90;;;;;;5054103;28;20032;-90
2021/03/11 10:27:25;;;;;;;1.77;1.30;;;12.50;64.50;;;;;;5035643;28;20029;-90
2021/03/11 10:30:03;;;;;;;2.45;1.08;;;12.50;64.60;;;;;;5018184;28;20075;-90
2021/03/11 10:32:29;;;;;;;3.17;1.10;;;12.50;64.80;;;;;;5035455;28;20367;-91
2021/03/11 10:34:55;;;;;;;1.67;1.30;;;12.50;64.50;;;;;;5036080;28;20075;-91
2021/03/11 10:37:31;;;;;;;1.77;1.08;;;12.50;64.50;;;;;;5032123;28;20078;-90
2021/03/11 10:40:00;;;;;;;3.38;1.00;;;12.60;64.40;;;;;;5036403;28;20108;-92
2021/03/11 10:42:38;;;;;;;2.85;1.40;;;12.60;64.20;;;;;;5040652;28;20024;-91
2021/03/11 10:45:10;;;;;;;3.42;1.10;;;12.70;64.00;;;;;;5034588;28;20032;-90
2021/03/11 10:47:36;;;;;;;2.38;0.93;;;12.90;63.70;;;;;;5016002;28;20115;-92
2021/03/11 10:50:02;;;;;;;2.15;1.25;;;13.00;63.90;;;;;;5022679;28;20021;-92
2021/03/11 10:52:28;;;;;;;1.45;0.90;;;13.10;63.10;;;;;;5038047;28;20052;-93
2021/03/11 10:54:54;;;;;;;2.80;0.98;;;13.20;63.30;;;;;;5037963;28;20025;-93
2021/03/11 10:57:21;;;;;;;3.05;1.13;;;13.20;63.40;;;;;;5033559;28;20067;-92
2021/03/11 10:59:54;;;;;;;1.65;1.20;;;13.20;63.70;;;;;;5028443;28;20026;-92
2021/03/11 11:02:22;;;;;;;2.70;1.02;;;13.30;64.20;;;;;;5034953;28;20020;-92
2021/03/11 11:04:48;;;;;;;1.15;1.00;;;13.20;65.00;;;;;;5029006;28;20021;-93
2021/03/11 11:07:15;;;;;;;2.90;1.33;;;13.10;65.70;;;;;;5036551;28;20032;-93
2021/03/11 11:09:47;;;;;;;2.05;1.05;;;13.00;66.40;;;;;;5035712;28;20025;-95
2021/03/11 11:12:15;;;;;;;2.65;1.20;;;12.90;67.70;;;;;;5021118;28;20057;-92
2021/03/11 11:14:48;;;;;;;4.40;1.17;;;12.80;68.20;;;;;;5042907;28;20033;-93
2021/03/11 11:17:22;;;;;;;3.70;1.10;;;12.60;68.40;;;;;;5041274;28;20086;-94
2021/03/11 11:19:55;;;;;;;1.95;1.40;;;12.50;68.90;;;;;;5045287;28;20025;-93
2021/03/11 11:22:21;;;;;;;1.50;0.98;;;12.50;69.90;;;;;;5041547;28;20026;-94
2021/03/11 11:24:46;;;;;;;1.90;1.17;;;12.40;70.10;;;;;;5041860;28;20027;-93
2021/03/11 11:27:13;;;;;;;3.80;1.13;;;12.30;71.20;;;;;;5044123;28;20545;-94
2021/03/11 11:29:39;;;;;;;3.42;1.27;;;12.20;70.80;;;;;;5042054;28;20040;-92
2021/03/11 11:32:06;;;;;;;2.20;1.15;;;12.10;71.30;;;;;;5035420;28;20033;-94
2021/03/11 11:34:34;;;;;;;1.10;1.00;;;12.00;72.10;;;;;;5043228;28;20025;-93
2021/03/11 11:37:00;;;;;;;1.48;1.08;;;12.00;72.50;;;;;;5026649;28;20482;-92
2021/03/11 11:39:26;;;;;;;1.23;1.13;;;11.90;73.00;;;;;;5028443;28;20061;-93
2021/03/11 11:41:52;;;;;;;2.17;1.20;;;11.80;73.20;;;;;;5042326;28;20025;-93
2021/03/11 11:44:18;;;;;;;4.43;1.20;;;11.80;73.10;;;;;;5040970;28;20032;-93
2021/03/11 11:46:47;;;;;;;1.33;1.23;;;11.70;73.70;;;;;;5041290;28;20115;-93
2021/03/11 11:49:13;;;;;;;1.60;1.10;;;11.50;73.90;;;;;;5041359;28;20499;-92
2021/03/11 11:51:52;;;;;;;2.08;1.50;;;11.50;74.90;;;;;;5040295;28;20029;-92
2021/03/11 11:54:18;;;;;;;4.57;1.60;;;11.50;75.80;;;;;;5034809;28;20021;-91
2021/03/11 11:56:49;;;;;;;2.58;1.30;;;11.40;75.70;;;;;;5038404;28;20060;-92
2021/03/11 12:03:02;;;;;;;2.50;1.20;;;11.30;76.40;;;;;;5051111;28;20552;-92
2021/03/11 12:05:31;;;;;;;4.80;1.30;;;11.30;76.50;;;;;;5038895;28;20085;-92
2021/03/11 12:07:56;;;;;;;2.22;1.65;;;11.30;76.70;;;;;;5038569;28;20078;-91
2021/03/11 12:10:27;;;;;;;2.90;1.55;;;11.20;77.40;;;;;;5038375;28;20025;-92
2021/03/11 12:12:52;;;;;;;4.07;1.70;;;11.30;77.30;;;;;;5037165;28;20025;-90
2021/03/11 12:15:18;;;;;;;2.33;1.33;;;11.30;77.60;;;;;;5036555;28;20025;-90
2021/03/11 12:17:44;;;;;;;2.88;1.13;;;11.30;77.60;;;;;;5036902;28;20028;-90
2021/03/11 12:20:10;;;;;;;3.70;1.30;;;11.40;77.70;;;;;;5037109;28;20032;-90
2021/03/11 12:22:36;;;;;;;2.92;1.60;;;11.40;78.10;;;;;;5036573;28;20028;-90
2021/03/11 12:25:02;;;;;;;2.17;1.67;;;11.40;78.20;;;;;;5036735;28;20040;-90
2021/03/11 12:27:28;;;;;;;3.15;1.60;;;11.40;78.50;;;;;;5036828;28;20417;-89
2021/03/11 12:29:54;;;;;;;4.93;1.60;;;11.40;78.30;;;;;;5036653;28;20021;-90
2021/03/11 12:32:20;;;;;;;3.25;1.98;;;11.50;78.30;;;;;;5033872;28;20143;-90
2021/03/11 12:34:46;;;;;;;2.38;1.20;;;11.50;78.20;;;;;;5034306;28;20029;-90
2021/03/11 12:37:13;;;;;;;2.35;1.42;;;11.60;78.30;;;;;;5036608;28;20029;-90
2021/03/11 12:39:39;;;;;;;1.50;0.90;;;11.60;78.20;;;;;;5034514;28;20029;-90
2021/03/11 12:42:05;;;;;;;0.73;0.73;;;11.70;78.20;;;;;;5017089;28;20032;-90
2021/03/11 12:44:31;;;;;;;1.10;1.00;;;11.80;77.70;;;;;;5030331;28;20029;-90
2021/03/11 12:47:20;;;;;;;0.70;0.70;;;11.90;77.90;;;;;;5036450;28;20043;-90
2021/03/11 12:49:46;;;;;;;2.78;0.70;;;11.90;77.60;;;;;;5037062;28;20036;-91
2021/03/11 12:52:12;;;;;;;1.75;1.38;;;12.00;77.50;;;;;;5036208;28;20025;-91
2021/03/11 12:54:38;;;;;;;0.65;0.65;;;12.10;77.30;;;;;;5020857;28;20087;-91
2021/03/11 12:57:03;;;;;;;2.58;0.70;;;12.10;77.10;;;;;;5035742;28;20467;-90
2021/03/11 12:59:35;;;;;;;1.17;0.60;;;12.20;76.90;;;;;;5036025;28;20021;-90
2021/03/11 13:02:01;;;;;;;0.80;0.80;;;12.40;76.80;;;;;;5035443;28;20035;-92
2021/03/11 13:04:41;;;;;;;0.47;0.43;;;12.60;76.40;;;;;;5035127;28;20036;-92